createdAt,value
2023-06-07T00:01:15.732Z,17.67
2023-06-07T00:03:42.639Z,17.70
2023-06-07T00:06:10.379Z,17.66
2023-06-07T00:08:39.267Z,17.67
2023-06-07T00:11:07.257Z,17.72
2023-06-07T00:13:37.432Z,17.81
2023-06-07T00:16:04.516Z,17.89
2023-06-07T00:18:31.828Z,17.94
2023-06-07T00:20:58.925Z,17.99
2023-06-07T00:23:29.153Z,17.84
2023-06-07T00:25:57.475Z,17.88
2023-06-07T00:28:24.097Z,17.80
2023-06-07T00:30:51.086Z,17.77
2023-06-07T00:33:18.184Z,17.77
2023-06-07T00:35:45.028Z,17.85
2023-06-07T00:38:11.738Z,17.92
2023-06-07T00:40:38.621Z,17.97
2023-06-07T00:43:05.307Z,17.99
2023-06-07T00:45:32.002Z,17.88
2023-06-07T00:47:58.821Z,17.77
2023-06-07T00:50:25.852Z,17.75
2023-06-07T00:52:52.517Z,17.73
2023-06-07T00:55:20.233Z,17.71
2023-06-07T00:57:47.029Z,17.67
2023-06-07T01:00:15.862Z,17.60
2023-06-07T01:02:46.986Z,17.54
2023-06-07T01:05:14.683Z,17.51
2023-06-07T01:07:45.931Z,17.44
2023-06-07T01:10:12.610Z,17.36
2023-06-07T01:12:40.445Z,17.23
2023-06-07T01:15:07.946Z,17.23
2023-06-07T01:17:38.303Z,17.15
2023-06-07T01:20:07.536Z,17.09
2023-06-07T01:22:35.078Z,17.05
2023-06-07T01:25:02.717Z,17.04
2023-06-07T01:27:31.272Z,17.08
2023-06-07T01:29:58.383Z,16.88
2023-06-07T01:32:25.683Z,16.78
2023-06-07T01:34:52.843Z,16.73
2023-06-07T01:37:25.697Z,16.67
2023-06-07T01:39:53.466Z,16.67
2023-06-07T01:42:20.598Z,16.66
2023-06-07T01:44:47.964Z,16.62
2023-06-07T01:47:16.649Z,16.49
2023-06-07T01:49:43.627Z,16.46
2023-06-07T01:52:11.103Z,16.52
2023-06-07T01:54:38.445Z,16.65
2023-06-07T01:57:28.209Z,16.65
2023-06-07T01:59:55.209Z,16.63
2023-06-07T02:02:33.453Z,16.62
2023-06-07T02:05:10.036Z,16.61
2023-06-07T02:07:41.921Z,16.64
2023-06-07T02:10:08.686Z,16.62
2023-06-07T02:12:36.388Z,16.61
2023-06-07T02:15:04.011Z,16.62
2023-06-07T02:17:32.845Z,16.61
2023-06-07T02:19:59.835Z,16.62
2023-06-07T02:22:29.630Z,16.62
2023-06-07T02:24:57.133Z,16.61
2023-06-07T02:27:23.815Z,16.62
2023-06-07T02:29:50.924Z,16.62
2023-06-07T02:32:17.634Z,16.66
2023-06-07T02:34:45.606Z,16.69
2023-06-07T02:37:12.364Z,16.71
2023-06-07T02:39:39.087Z,16.71
2023-06-07T02:42:06.851Z,16.72
2023-06-07T02:44:33.828Z,16.74
2023-06-07T02:47:00.748Z,16.74
2023-06-07T02:49:27.970Z,16.72
2023-06-07T02:51:55.516Z,16.70
2023-06-07T02:54:22.516Z,16.72
2023-06-07T02:56:50.343Z,16.79
2023-06-07T02:59:17.223Z,16.87
2023-06-07T03:01:46.979Z,16.93
2023-06-07T03:04:15.091Z,16.99
2023-06-07T03:06:42.885Z,17.05
2023-06-07T03:09:31.016Z,17.10
2023-06-07T03:11:57.935Z,17.14
2023-06-07T03:14:26.453Z,17.19
2023-06-07T03:16:54.100Z,17.20
2023-06-07T03:19:21.380Z,17.09
2023-06-07T03:21:48.300Z,17.17
2023-06-07T03:24:17.252Z,17.27
2023-06-07T03:26:45.917Z,17.38
2023-06-07T03:29:13.355Z,17.50
2023-06-07T03:31:40.938Z,17.57
2023-06-07T03:34:10.605Z,17.64
2023-06-07T03:36:38.842Z,17.58
2023-06-07T03:39:06.147Z,17.59
2023-06-07T03:41:33.939Z,17.64
2023-06-07T03:44:04.200Z,17.76
2023-06-07T03:46:31.425Z,17.82
2023-06-07T03:48:58.732Z,17.92
2023-06-07T03:51:26.171Z,18.10
2023-06-07T03:53:53.574Z,18.25
2023-06-07T03:56:21.724Z,18.36
2023-06-07T03:58:49.530Z,18.43
2023-06-07T04:01:18.531Z,18.49
2023-06-07T04:03:47.418Z,18.52
2023-06-07T04:06:14.951Z,18.59
2023-06-07T04:08:42.665Z,18.55
2023-06-07T04:11:09.420Z,18.48
2023-06-07T04:13:36.702Z,18.58
2023-06-07T04:16:03.951Z,18.57
2023-06-07T04:18:30.773Z,18.65
2023-06-07T04:20:57.577Z,18.70
2023-06-07T04:23:25.466Z,18.91
2023-06-07T04:25:56.179Z,18.99
2023-06-07T04:28:25.425Z,19.06
2023-06-07T04:30:57.752Z,19.12
2023-06-07T04:33:24.800Z,19.19
2023-06-07T04:35:51.723Z,19.27
2023-06-07T04:38:24.541Z,19.35
2023-06-07T04:40:56.582Z,19.44
2023-06-07T04:43:38.553Z,19.50
2023-06-07T04:46:09.847Z,19.57
2023-06-07T04:48:41.569Z,19.66
2023-06-07T04:51:09.142Z,19.72
2023-06-07T04:53:43.634Z,19.78
2023-06-07T04:56:12.553Z,19.87
2023-06-07T04:58:42.538Z,19.97
2023-06-07T05:01:11.367Z,20.08
2023-06-07T05:03:41.459Z,20.19
2023-06-07T05:06:10.598Z,20.27
2023-06-07T05:08:38.191Z,20.19
2023-06-07T05:11:05.381Z,20.19
2023-06-07T05:13:32.763Z,20.33
2023-06-07T05:16:04.121Z,20.48
2023-06-07T05:18:32.778Z,20.64
2023-06-07T05:21:01.328Z,20.76
2023-06-07T05:23:29.389Z,20.88
2023-06-07T05:25:56.483Z,21.02
2023-06-07T05:28:23.947Z,21.16
2023-06-07T05:30:53.880Z,21.27
2023-06-07T05:33:22.022Z,21.38
2023-06-07T05:35:49.165Z,21.48
2023-06-07T05:38:17.339Z,21.58
2023-06-07T05:40:44.145Z,21.71
2023-06-07T05:43:11.644Z,21.85
2023-06-07T05:45:40.858Z,21.97
2023-06-07T05:48:08.229Z,22.08
2023-06-07T05:50:35.698Z,22.22
2023-06-07T05:53:02.489Z,22.34
2023-06-07T05:55:30.053Z,22.39
2023-06-07T05:57:57.938Z,22.41
2023-06-07T06:00:27.864Z,22.47
2023-06-07T06:02:58.223Z,22.52
2023-06-07T06:05:29.796Z,22.58
2023-06-07T06:07:59.725Z,22.64
2023-06-07T06:10:28.254Z,22.67
2023-06-07T06:12:57.341Z,22.74
2023-06-07T06:15:24.780Z,22.89
2023-06-07T06:17:54.807Z,22.97
2023-06-07T06:20:21.825Z,23.09
2023-06-07T06:22:48.967Z,23.25
2023-06-07T06:25:15.817Z,23.35
2023-06-07T06:27:43.671Z,23.49
2023-06-07T06:30:11.105Z,23.65
2023-06-07T06:32:39.734Z,23.78
2023-06-07T06:35:07.890Z,23.91
2023-06-07T06:37:35.123Z,24.00
2023-06-07T06:40:01.940Z,23.99
2023-06-07T06:42:28.944Z,24.00
2023-06-07T06:45:20.004Z,24.02
2023-06-07T06:47:46.878Z,24.09
2023-06-07T06:50:30.121Z,24.14
2023-06-07T06:53:00.960Z,24.21
2023-06-07T06:55:28.227Z,24.28
2023-06-07T06:57:55.711Z,24.36
2023-06-07T07:00:24.695Z,24.43
2023-06-07T07:02:55.130Z,24.49
2023-06-07T07:05:23.408Z,24.54
2023-06-07T07:07:50.484Z,24.59
2023-06-07T07:10:19.105Z,24.67
2023-06-07T07:12:46.219Z,24.76
2023-06-07T07:15:13.995Z,24.86
2023-06-07T07:17:50.335Z,24.94
2023-06-07T07:20:18.095Z,25.01
2023-06-07T07:22:46.857Z,25.09
2023-06-07T07:25:13.857Z,25.11
2023-06-07T07:27:40.834Z,25.15
2023-06-07T07:30:07.981Z,25.21
2023-06-07T07:32:35.055Z,25.31
2023-06-07T07:35:03.062Z,25.42
2023-06-07T07:37:31.134Z,25.52
2023-06-07T07:39:58.253Z,25.61
2023-06-07T07:42:25.616Z,25.66
2023-06-07T07:44:52.818Z,25.74
2023-06-07T07:47:20.102Z,25.84
2023-06-07T07:49:47.924Z,25.97
2023-06-07T07:52:14.737Z,26.08
2023-06-07T07:54:41.859Z,26.14
2023-06-07T07:57:08.935Z,26.20
2023-06-07T07:59:38.850Z,26.27
2023-06-07T08:02:05.732Z,26.33
2023-06-07T08:04:33.043Z,26.42
2023-06-07T08:07:01.012Z,26.50
2023-06-07T08:09:27.993Z,26.54
2023-06-07T08:11:58.412Z,26.57
2023-06-07T08:14:25.848Z,26.59
2023-06-07T08:16:53.008Z,26.64
2023-06-07T08:19:19.990Z,26.70
2023-06-07T08:21:48.192Z,26.78
2023-06-07T08:24:15.948Z,26.83
2023-06-07T08:26:45.564Z,26.82
2023-06-07T08:29:12.356Z,26.82
2023-06-07T08:31:42.161Z,26.82
2023-06-07T08:34:11.155Z,26.80
2023-06-07T08:36:40.335Z,26.83
2023-06-07T08:39:07.955Z,26.88
2023-06-07T08:41:35.004Z,26.87
2023-06-07T08:44:02.151Z,26.83
2023-06-07T08:46:32.066Z,26.79
2023-06-07T08:49:03.431Z,26.78
2023-06-07T08:51:36.896Z,26.81
2023-06-07T08:54:04.591Z,26.83
2023-06-07T08:56:34.492Z,26.87
2023-06-07T08:59:04.755Z,26.87
2023-06-07T09:01:36.874Z,26.87
2023-06-07T09:04:05.248Z,26.86
2023-06-07T09:06:34.968Z,26.86
2023-06-07T09:09:03.651Z,26.86
2023-06-07T09:11:33.645Z,26.84
2023-06-07T09:14:01.711Z,26.86
2023-06-07T09:16:31.086Z,26.91
2023-06-07T09:19:02.391Z,26.87
2023-06-07T09:21:36.977Z,26.83
2023-06-07T09:24:04.088Z,26.78
2023-06-07T09:26:38.797Z,26.77
2023-06-07T09:29:09.718Z,26.76
2023-06-07T09:31:38.392Z,26.73
2023-06-07T09:34:25.261Z,26.73
2023-06-07T09:36:56.785Z,26.73
2023-06-07T09:39:25.946Z,26.76
2023-06-07T09:41:56.590Z,26.80
2023-06-07T09:44:30.379Z,26.81
2023-06-07T09:46:58.665Z,26.79
2023-06-07T09:49:34.969Z,26.79
2023-06-07T09:52:03.125Z,26.82
2023-06-07T09:54:45.994Z,26.81
2023-06-07T09:57:29.609Z,26.80
2023-06-07T10:00:08.349Z,26.81
2023-06-07T10:02:44.417Z,26.84
2023-06-07T10:05:15.670Z,27.02
2023-06-07T10:07:53.481Z,27.11
2023-06-07T10:10:22.813Z,27.08
2023-06-07T10:12:51.887Z,26.94
2023-06-07T10:15:24.204Z,26.93
2023-06-07T10:17:56.065Z,26.93
2023-06-07T10:20:30.769Z,26.96
2023-06-07T10:23:08.256Z,26.95
2023-06-07T10:25:38.665Z,26.95
2023-06-07T10:28:25.787Z,26.95
2023-06-07T10:30:56.226Z,26.98
2023-06-07T10:33:26.015Z,26.98
2023-06-07T10:35:53.132Z,26.98
2023-06-07T10:38:22.678Z,26.98
2023-06-07T10:40:52.664Z,27.01
2023-06-07T10:43:35.686Z,27.04
2023-06-07T10:46:19.439Z,27.05
2023-06-07T10:48:49.185Z,27.06
2023-06-07T10:51:16.528Z,27.03
2023-06-07T10:53:56.693Z,27.00
2023-06-07T10:56:34.463Z,27.00
2023-06-07T10:59:13.686Z,26.97
2023-06-07T11:01:41.152Z,26.95
2023-06-07T11:04:08.285Z,26.90
2023-06-07T11:07:01.183Z,26.83
2023-06-07T11:09:34.246Z,26.80
2023-06-07T11:12:01.763Z,26.82
2023-06-07T11:14:28.883Z,26.86
2023-06-07T11:16:55.908Z,26.81
2023-06-07T11:19:23.067Z,26.79
2023-06-07T11:21:56.782Z,26.82
2023-06-07T11:24:25.172Z,26.79
2023-06-07T11:26:54.287Z,26.77
2023-06-07T11:29:27.900Z,26.75
2023-06-07T11:32:06.074Z,26.71
2023-06-07T11:34:33.835Z,26.68
2023-06-07T11:37:14.927Z,26.73
2023-06-07T11:39:47.915Z,26.83
2023-06-07T11:42:14.884Z,26.93
2023-06-07T11:44:41.813Z,27.08
2023-06-07T11:47:08.754Z,27.20
2023-06-07T11:49:39.824Z,27.26
2023-06-07T11:52:07.670Z,27.29
2023-06-07T11:54:42.711Z,27.33
2023-06-07T11:57:13.469Z,27.33
2023-06-07T11:59:42.311Z,27.38
2023-06-07T12:02:09.611Z,27.45
2023-06-07T12:04:37.617Z,27.49
2023-06-07T12:07:20.483Z,27.63
2023-06-07T12:09:50.044Z,27.48
2023-06-07T12:12:17.147Z,27.40
2023-06-07T12:14:46.192Z,27.43
2023-06-07T12:17:24.172Z,27.49
2023-06-07T12:20:12.036Z,27.51
2023-06-07T12:22:39.565Z,27.52
2023-06-07T12:25:15.648Z,27.53
2023-06-07T12:27:49.101Z,27.52
2023-06-07T12:30:20.143Z,27.49
2023-06-07T12:32:48.663Z,27.39
2023-06-07T12:35:18.178Z,27.33
2023-06-07T12:37:45.443Z,27.31
2023-06-07T12:40:12.677Z,27.26
2023-06-07T12:42:41.236Z,27.24
2023-06-07T12:45:08.822Z,27.21
2023-06-07T12:47:36.808Z,27.19
2023-06-07T12:50:05.915Z,27.18
2023-06-07T12:52:32.832Z,27.19
2023-06-07T12:54:59.751Z,27.21
2023-06-07T12:57:26.662Z,27.29
2023-06-07T12:59:53.385Z,27.34
2023-06-07T13:02:20.897Z,27.23
2023-06-07T13:04:47.938Z,27.12
2023-06-07T13:07:14.998Z,27.09
2023-06-07T13:09:42.070Z,27.10
2023-06-07T13:12:09.576Z,27.03
2023-06-07T13:14:37.151Z,26.87
2023-06-07T13:17:04.346Z,26.74
2023-06-07T13:19:32.038Z,26.57
2023-06-07T13:21:59.039Z,26.44
2023-06-07T13:24:26.193Z,26.45
2023-06-07T13:26:53.200Z,26.53
2023-06-07T13:29:20.809Z,26.59
2023-06-07T13:31:49.800Z,26.63
2023-06-07T13:34:18.596Z,26.62
2023-06-07T13:36:47.120Z,26.61
2023-06-07T13:39:14.451Z,26.59
2023-06-07T13:41:43.012Z,26.57
2023-06-07T13:44:17.965Z,26.52
2023-06-07T13:46:47.065Z,26.52
2023-06-07T13:49:15.931Z,26.51
2023-06-07T13:51:45.409Z,26.55
2023-06-07T13:54:20.316Z,26.58
2023-06-07T13:56:51.387Z,26.56
2023-06-07T13:59:23.553Z,26.60
2023-06-07T14:01:55.266Z,26.58
2023-06-07T14:04:29.950Z,26.58
2023-06-07T14:06:57.297Z,26.58
2023-06-07T14:09:24.154Z,26.56
2023-06-07T14:11:54.213Z,26.54
2023-06-07T14:14:21.071Z,26.51
2023-06-07T14:16:50.564Z,26.50
2023-06-07T14:19:18.022Z,26.49
2023-06-07T14:21:45.917Z,26.31
2023-06-07T14:24:12.834Z,26.22
2023-06-07T14:26:39.508Z,26.25
2023-06-07T14:29:06.393Z,26.21
2023-06-07T14:31:33.373Z,26.19
2023-06-07T14:34:00.503Z,26.14
2023-06-07T14:36:27.987Z,26.10
2023-06-07T14:38:55.245Z,26.03
2023-06-07T14:41:28.458Z,25.98
2023-06-07T14:43:55.590Z,25.81
2023-06-07T14:46:25.789Z,25.75
2023-06-07T14:48:54.237Z,25.70
2023-06-07T14:51:23.739Z,25.68
2023-06-07T14:53:51.153Z,25.73
2023-06-07T14:56:18.940Z,25.74
2023-06-07T14:58:48.448Z,25.77
2023-06-07T15:01:15.716Z,25.76
2023-06-07T15:03:44.736Z,25.74
2023-06-07T15:06:11.515Z,25.69
2023-06-07T15:08:38.984Z,25.66
2023-06-07T15:11:06.302Z,25.63
2023-06-07T15:13:33.273Z,25.64
2023-06-07T15:16:00.162Z,25.67
2023-06-07T15:18:28.818Z,25.81
2023-06-07T15:20:55.773Z,25.92
2023-06-07T15:23:22.501Z,26.02
2023-06-07T15:25:49.521Z,25.98
2023-06-07T15:28:16.572Z,25.98
2023-06-07T15:30:43.331Z,25.98
2023-06-07T15:33:10.521Z,25.99
2023-06-07T15:35:37.549Z,25.96
2023-06-07T15:38:04.377Z,25.88
2023-06-07T15:40:31.672Z,25.82
2023-06-07T15:42:58.575Z,25.69
2023-06-07T15:45:27.667Z,25.58
2023-06-07T15:48:02.236Z,25.47
2023-06-07T15:50:29.827Z,25.37
2023-06-07T15:52:58.291Z,25.28
2023-06-07T15:55:27.995Z,25.19
2023-06-07T15:57:55.270Z,25.10
2023-06-07T16:02:52.184Z,24.96
2023-06-07T16:05:18.987Z,24.93
2023-06-07T16:07:47.105Z,24.84
2023-06-07T16:10:13.846Z,24.74
2023-06-07T16:12:41.041Z,24.73
2023-06-07T16:15:10.045Z,24.68
2023-06-07T16:17:37.166Z,24.63
2023-06-07T16:20:04.695Z,24.50
2023-06-07T16:22:32.213Z,24.44
2023-06-07T16:24:59.009Z,24.38
2023-06-07T16:27:25.761Z,24.33
2023-06-07T16:29:52.499Z,24.28
2023-06-07T16:32:19.329Z,24.23
2023-06-07T16:34:46.890Z,24.20
2023-06-07T16:37:14.724Z,24.17
2023-06-07T16:39:41.484Z,24.14
2023-06-07T16:42:10.692Z,24.13
2023-06-07T16:44:38.279Z,24.11
2023-06-07T16:47:05.256Z,24.14
2023-06-07T16:49:33.387Z,24.13
2023-06-07T16:52:00.195Z,24.08
2023-06-07T16:54:27.915Z,24.04
2023-06-07T16:56:54.736Z,24.08
2023-06-07T16:59:21.497Z,24.10
2023-06-07T17:01:49.106Z,24.07
2023-06-07T17:04:17.634Z,24.00
2023-06-07T17:06:45.642Z,23.94
2023-06-07T17:09:12.454Z,23.85
2023-06-07T17:11:39.176Z,23.63
2023-06-07T17:14:06.010Z,23.61
2023-06-07T17:16:32.857Z,23.56
2023-06-07T17:18:59.685Z,23.50
2023-06-07T17:21:26.499Z,23.41
2023-06-07T17:23:53.661Z,23.34
2023-06-07T17:26:21.971Z,23.26
2023-06-07T17:28:48.771Z,23.17
2023-06-07T17:31:15.474Z,23.11
2023-06-07T17:33:42.502Z,23.02
2023-06-07T17:36:09.495Z,22.93
2023-06-07T17:38:36.429Z,22.85
2023-06-07T17:41:03.539Z,22.75
2023-06-07T17:43:30.393Z,22.67
2023-06-07T17:45:57.274Z,22.56
2023-06-07T17:48:24.543Z,22.32
2023-06-07T17:50:51.250Z,22.23
2023-06-07T17:53:19.072Z,22.15
2023-06-07T17:55:46.357Z,22.06
2023-06-07T17:58:13.488Z,21.97
2023-06-07T18:00:40.498Z,21.90
2023-06-07T18:03:07.424Z,21.85
2023-06-07T18:05:34.434Z,21.73
2023-06-07T18:08:03.227Z,21.70
2023-06-07T18:10:30.378Z,21.59
2023-06-07T18:12:57.906Z,21.52
2023-06-07T18:15:26.736Z,21.45
2023-06-07T18:17:54.401Z,21.38
2023-06-07T18:20:21.499Z,21.32
2023-06-07T18:22:48.299Z,21.25
2023-06-07T18:25:15.464Z,21.20
2023-06-07T18:27:43.267Z,21.33
2023-06-07T18:30:10.315Z,21.31
2023-06-07T18:32:37.454Z,21.09
2023-06-07T18:35:04.981Z,21.01
2023-06-07T18:37:32.396Z,20.98
2023-06-07T18:40:04.884Z,20.95
2023-06-07T18:42:32.363Z,20.92
2023-06-07T18:44:59.094Z,20.89
2023-06-07T18:47:26.885Z,20.85
2023-06-07T18:49:54.089Z,20.79
2023-06-07T18:52:20.983Z,20.74
2023-06-07T18:54:50.700Z,20.72
2023-06-07T18:57:18.408Z,20.80
2023-06-07T18:59:45.235Z,20.66
2023-06-07T19:02:12.525Z,20.64
2023-06-07T19:04:39.624Z,20.64
2023-06-07T19:07:06.840Z,20.66
2023-06-07T19:09:35.503Z,20.65
2023-06-07T19:12:02.368Z,20.61
2023-06-07T19:14:31.135Z,20.60
2023-06-07T19:16:58.392Z,20.59
2023-06-07T19:19:25.170Z,20.59
2023-06-07T19:21:52.025Z,20.61
2023-06-07T19:24:19.082Z,20.60
2023-06-07T19:26:46.208Z,20.63
2023-06-07T19:29:13.056Z,20.62
2023-06-07T19:31:40.209Z,20.58
2023-06-07T19:34:08.581Z,20.52
2023-06-07T19:36:37.440Z,20.48
2023-06-07T19:39:04.536Z,20.44
2023-06-07T19:41:31.833Z,20.37
2023-06-07T19:43:59.023Z,20.34
2023-06-07T19:46:26.001Z,20.32
2023-06-07T19:48:52.940Z,20.30
2023-06-07T19:51:21.753Z,20.29
2023-06-07T19:53:48.833Z,20.26
2023-06-07T19:56:16.600Z,20.25
2023-06-07T19:58:43.468Z,20.23
2023-06-07T20:01:10.543Z,20.31
2023-06-07T20:03:37.256Z,20.33
2023-06-07T20:06:04.867Z,20.34
2023-06-07T20:08:33.465Z,20.36
2023-06-07T20:11:00.157Z,20.37
2023-06-07T20:13:27.031Z,20.22
2023-06-07T20:15:54.671Z,20.15
2023-06-07T20:18:21.931Z,20.14
2023-06-07T20:20:48.612Z,20.10
2023-06-07T20:23:16.232Z,20.04
2023-06-07T20:25:42.987Z,20.05
2023-06-07T20:28:09.895Z,20.18
2023-06-07T20:30:36.660Z,20.22
2023-06-07T20:33:03.826Z,20.22
2023-06-07T20:35:32.578Z,20.13
2023-06-07T20:37:59.576Z,20.18
2023-06-07T20:40:26.141Z,20.11
2023-06-07T20:42:53.135Z,20.03
2023-06-07T20:45:19.839Z,19.98
2023-06-07T20:47:46.548Z,19.93
2023-06-07T20:50:13.268Z,19.94
2023-06-07T20:52:41.095Z,19.87
2023-06-07T20:55:08.467Z,19.91
2023-06-07T20:57:35.401Z,19.88
2023-06-07T21:00:03.707Z,19.91
2023-06-07T21:02:31.793Z,19.89
2023-06-07T21:04:58.983Z,19.88
2023-06-07T21:07:25.651Z,19.86
2023-06-07T21:09:52.884Z,19.82
2023-06-07T21:12:20.012Z,19.82
2023-06-07T21:14:47.040Z,19.82
2023-06-07T21:17:13.977Z,19.78
2023-06-07T21:19:40.689Z,19.80
2023-06-07T21:22:07.396Z,19.85
2023-06-07T21:24:34.251Z,19.83
2023-06-07T21:27:01.079Z,19.85
2023-06-07T21:29:27.886Z,19.84
2023-06-07T21:31:54.928Z,19.75
2023-06-07T21:34:21.773Z,19.72
2023-06-07T21:36:48.696Z,19.64
2023-06-07T21:39:15.323Z,19.54
2023-06-07T21:41:42.224Z,19.48
2023-06-07T21:44:08.878Z,19.44
2023-06-07T21:46:35.609Z,19.40
2023-06-07T21:49:02.747Z,19.34
2023-06-07T21:51:29.549Z,19.32
2023-06-07T21:53:56.713Z,19.17
2023-06-07T21:56:23.544Z,19.12
2023-06-07T21:58:50.288Z,19.23
2023-06-07T22:01:17.148Z,19.27
2023-06-07T22:03:44.196Z,19.13
2023-06-07T22:06:11.151Z,19.10
2023-06-07T22:08:38.001Z,19.06
2023-06-07T22:11:04.828Z,19.00
2023-06-07T22:13:37.580Z,18.98
2023-06-07T22:16:05.241Z,18.97
2023-06-07T22:18:35.830Z,18.94
2023-06-07T22:21:03.791Z,18.96
2023-06-07T22:23:31.256Z,18.97
2023-06-07T22:25:58.072Z,19.06
2023-06-07T22:28:26.504Z,18.97
2023-06-07T22:30:53.892Z,18.95
2023-06-07T22:33:21.286Z,18.98
2023-06-07T22:35:48.246Z,19.13
2023-06-07T22:38:16.431Z,19.14
2023-06-07T22:40:43.169Z,19.14
2023-06-07T22:43:09.882Z,19.16
2023-06-07T22:45:36.790Z,19.17
2023-06-07T22:48:11.760Z,19.18
2023-06-07T22:50:40.274Z,19.21
2023-06-07T22:53:09.159Z,19.29
2023-06-07T22:55:36.362Z,19.34
2023-06-07T22:58:03.633Z,19.36
2023-06-07T23:00:34.915Z,19.39
2023-06-07T23:03:03.063Z,19.41
2023-06-07T23:05:29.995Z,19.43
2023-06-07T23:07:57.796Z,19.41
2023-06-07T23:10:35.388Z,19.42
2023-06-07T23:13:07.995Z,19.42
2023-06-07T23:15:35.974Z,19.36
2023-06-07T23:18:03.186Z,19.26
2023-06-07T23:20:33.266Z,19.13
2023-06-07T23:23:04.174Z,19.20
2023-06-07T23:25:31.888Z,19.24
2023-06-07T23:27:58.889Z,19.22
2023-06-07T23:30:27.007Z,19.17
2023-06-07T23:32:54.289Z,19.16
2023-06-07T23:35:21.522Z,19.16
2023-06-07T23:37:48.864Z,19.13
2023-06-07T23:40:16.694Z,19.12
2023-06-07T23:42:44.171Z,19.11
2023-06-07T23:45:11.363Z,19.11
2023-06-07T23:47:38.469Z,19.12
2023-06-07T23:50:09.017Z,19.14
2023-06-07T23:52:38.392Z,19.11
2023-06-07T23:55:05.570Z,19.11
2023-06-07T23:57:32.482Z,19.11
2023-06-07T23:59:59.248Z,19.12
